VLG27VG LEST-LEMG
Flight info
| Callsign | VLG27VG |
|---|---|
| Flight time | 1h 15m |
| Altitude | 35000 |
| Route | FORNO DCT DESAT N733 ZMR L155 NVS DCT TLD DCT DOPEN DCT MONTO DCT CRISA DCT VULPE |
| Aircraft | A320/M-SDE3FGHIRWY/LB1 |
Departure
| Time | 2026-04-30 21:23 |
|---|---|
| Airport | Santiago-Rosalía de Castro Airport (LEST) |
Arrival
| Time | 2026-04-30 22:38 |
|---|---|
| Airport | Málaga-Costa del Sol Airport (LEMG) |
| Time | Latitude | Longitude | Altitude | Speed | Heading |
|---|---|---|---|---|---|
| 2026-04-30 20:40 | 42.89218 | -8.41813 | 1206 ft | 0 kts | 276° |
| 2026-04-30 21:11 | 42.89217 | -8.41800 | 1206 ft | 3 kts | 276° |
| 2026-04-30 21:11 | 42.89214 | -8.41772 | 1206 ft | 3 kts | 276° |
| 2026-04-30 21:12 | 42.89213 | -8.41747 | 1205 ft | 3 kts | 278° |
| 2026-04-30 21:12 | 42.89208 | -8.41723 | 1204 ft | 3 kts | 301° |
| 2026-04-30 21:12 | 42.89194 | -8.41702 | 1203 ft | 3 kts | 335° |
| 2026-04-30 21:12 | 42.89180 | -8.41695 | 1203 ft | 1 kts | 346° |
| 2026-04-30 21:13 | 42.89178 | -8.41694 | 1203 ft | 1 kts | 346° |
| 2026-04-30 21:15 | 42.89180 | -8.41695 | 1203 ft | 3 kts | 346° |
| 2026-04-30 21:16 | 42.89232 | -8.41712 | 1203 ft | 13 kts | 346° |
| 2026-04-30 21:16 | 42.89326 | -8.41744 | 1203 ft | 14 kts | 346° |
| 2026-04-30 21:16 | 42.89414 | -8.41772 | 1203 ft | 9 kts | 347° |
| 2026-04-30 21:16 | 42.89463 | -8.41734 | 1200 ft | 10 kts | 71° |
| 2026-04-30 21:17 | 42.89524 | -8.41708 | 1197 ft | 10 kts | 345° |
| 2026-04-30 21:17 | 42.89587 | -8.41730 | 1197 ft | 9 kts | 347° |
| 2026-04-30 21:17 | 42.89676 | -8.41759 | 1197 ft | 18 kts | 346° |
| 2026-04-30 21:17 | 42.89803 | -8.41802 | 1197 ft | 19 kts | 343° |
| 2026-04-30 21:18 | 42.89934 | -8.41854 | 1198 ft | 20 kts | 348° |
| 2026-04-30 21:18 | 42.90070 | -8.41891 | 1197 ft | 20 kts | 348° |
| 2026-04-30 21:18 | 42.90206 | -8.41935 | 1197 ft | 21 kts | 346° |
| 2026-04-30 21:18 | 42.90353 | -8.41984 | 1197 ft | 22 kts | 346° |
| 2026-04-30 21:19 | 42.90510 | -8.42039 | 1197 ft | 23 kts | 346° |
| 2026-04-30 21:19 | 42.90655 | -8.42087 | 1197 ft | 22 kts | 346° |
| 2026-04-30 21:19 | 42.90809 | -8.42138 | 1196 ft | 24 kts | 346° |
| 2026-04-30 21:19 | 42.90965 | -8.42191 | 1196 ft | 19 kts | 345° |
| 2026-04-30 21:20 | 42.91076 | -8.42228 | 1197 ft | 11 kts | 346° |
| 2026-04-30 21:20 | 42.91131 | -8.42208 | 1196 ft | 7 kts | 50° |
| 2026-04-30 21:20 | 42.91148 | -8.42152 | 1196 ft | 6 kts | 77° |
| 2026-04-30 21:20 | 42.91155 | -8.42100 | 1194 ft | 6 kts | 81° |
| 2026-04-30 21:21 | 42.91147 | -8.42026 | 1193 ft | 8 kts | 133° |
| 2026-04-30 21:21 | 42.91119 | -8.42011 | 1193 ft | 0 kts | 167° |
| 2026-04-30 21:22 | 42.90208 | -8.41706 | 1196 ft | 131 kts | 166° |
| 2026-04-30 21:23 | 42.89157 | -8.41356 | 1249 ft | 175 kts | 167° |
| 2026-04-30 21:23 | 42.87964 | -8.40972 | 1882 ft | 176 kts | 167° |
| 2026-04-30 21:23 | 42.85395 | -8.40115 | 2736 ft | 212 kts | 168° |
| 2026-04-30 21:24 | 42.83916 | -8.39555 | 3257 ft | 231 kts | 159° |
| 2026-04-30 21:24 | 42.82656 | -8.38030 | 3681 ft | 261 kts | 120° |
| 2026-04-30 21:24 | 42.82276 | -8.35575 | 4453 ft | 275 kts | 88° |
| 2026-04-30 21:24 | 42.82487 | -8.32977 | 5417 ft | 276 kts | 84° |
| 2026-04-30 21:25 | 42.82969 | -8.27774 | 7297 ft | 279 kts | 85° |
| 2026-04-30 21:25 | 42.83040 | -8.25142 | 8140 ft | 279 kts | 101° |
| 2026-04-30 21:25 | 42.82386 | -8.22670 | 8871 ft | 280 kts | 123° |
| 2026-04-30 21:26 | 42.80277 | -8.18203 | 10487 ft | 286 kts | 126° |
| 2026-04-30 21:26 | 42.79144 | -8.15847 | 10738 ft | 310 kts | 125° |
| 2026-04-30 21:27 | 42.76676 | -8.10672 | 11742 ft | 335 kts | 125° |
| 2026-04-30 21:27 | 42.75406 | -8.07988 | 12445 ft | 340 kts | 125° |
| 2026-04-30 21:27 | 42.74115 | -8.05256 | 13141 ft | 346 kts | 125° |
| 2026-04-30 21:28 | 42.71474 | -7.99668 | 14434 ft | 356 kts | 125° |
| 2026-04-30 21:28 | 42.70126 | -7.96826 | 15079 ft | 359 kts | 125° |
| 2026-04-30 21:28 | 42.67392 | -7.91077 | 16364 ft | 365 kts | 126° |
| 2026-04-30 21:29 | 42.66003 | -7.88164 | 16996 ft | 369 kts | 126° |
| 2026-04-30 21:29 | 42.61760 | -7.79276 | 18793 ft | 379 kts | 126° |
| 2026-04-30 21:30 | 42.58875 | -7.73235 | 19884 ft | 383 kts | 126° |
| 2026-04-30 21:31 | 42.54472 | -7.64060 | 21494 ft | 390 kts | 126° |
| 2026-04-30 21:31 | 42.51486 | -7.57859 | 22505 ft | 396 kts | 126° |
| 2026-04-30 21:32 | 42.48458 | -7.51568 | 23475 ft | 401 kts | 126° |
| 2026-04-30 21:32 | 42.46927 | -7.48399 | 23922 ft | 403 kts | 126° |
| 2026-04-30 21:32 | 42.45380 | -7.45219 | 24309 ft | 406 kts | 126° |
| 2026-04-30 21:32 | 42.43811 | -7.42034 | 24699 ft | 407 kts | 127° |
| 2026-04-30 21:33 | 42.42228 | -7.38840 | 25101 ft | 410 kts | 127° |
| 2026-04-30 21:33 | 42.39049 | -7.32459 | 25863 ft | 414 kts | 127° |
| 2026-04-30 21:33 | 42.37434 | -7.29221 | 26233 ft | 416 kts | 127° |
| 2026-04-30 21:34 | 42.35814 | -7.25969 | 26596 ft | 418 kts | 127° |
| 2026-04-30 21:34 | 42.32548 | -7.19415 | 27306 ft | 423 kts | 127° |
| 2026-04-30 21:34 | 42.30904 | -7.16112 | 27684 ft | 425 kts | 127° |
| 2026-04-30 21:35 | 42.29248 | -7.12792 | 28034 ft | 427 kts | 127° |
| 2026-04-30 21:35 | 42.27585 | -7.09462 | 28397 ft | 429 kts | 127° |
| 2026-04-30 21:35 | 42.25911 | -7.06118 | 28752 ft | 431 kts | 127° |
| 2026-04-30 21:35 | 42.24226 | -7.02759 | 29102 ft | 433 kts | 127° |
| 2026-04-30 21:36 | 42.22533 | -6.99389 | 29435 ft | 435 kts | 127° |
| 2026-04-30 21:36 | 42.20835 | -6.96006 | 29757 ft | 437 kts | 127° |
| 2026-04-30 21:37 | 42.15690 | -6.85768 | 30610 ft | 442 kts | 127° |
| 2026-04-30 21:37 | 42.13957 | -6.82334 | 30853 ft | 444 kts | 127° |
| 2026-04-30 21:37 | 42.12216 | -6.78893 | 31108 ft | 446 kts | 127° |
| 2026-04-30 21:37 | 42.10465 | -6.75436 | 31375 ft | 447 kts | 127° |
| 2026-04-30 21:38 | 42.08714 | -6.71986 | 31744 ft | 446 kts | 127° |
| 2026-04-30 21:38 | 42.06967 | -6.68540 | 32091 ft | 445 kts | 127° |
| 2026-04-30 21:38 | 42.05226 | -6.65097 | 32440 ft | 444 kts | 127° |
| 2026-04-30 21:38 | 42.03487 | -6.61663 | 32786 ft | 444 kts | 127° |
| 2026-04-30 21:39 | 42.01747 | -6.58239 | 33136 ft | 443 kts | 128° |
| 2026-04-30 21:39 | 42.00007 | -6.54821 | 33460 ft | 443 kts | 128° |
| 2026-04-30 21:39 | 41.98267 | -6.51411 | 33802 ft | 442 kts | 128° |
| 2026-04-30 21:39 | 41.96525 | -6.48005 | 34125 ft | 442 kts | 128° |
| 2026-04-30 21:40 | 41.94787 | -6.44606 | 34403 ft | 441 kts | 128° |
| 2026-04-30 21:40 | 41.93051 | -6.41207 | 34680 ft | 441 kts | 128° |
| 2026-04-30 21:40 | 41.91313 | -6.37809 | 34937 ft | 441 kts | 128° |
| 2026-04-30 21:40 | 41.89574 | -6.34411 | 35102 ft | 441 kts | 128° |
| 2026-04-30 21:41 | 41.86117 | -6.27667 | 35136 ft | 437 kts | 128° |
| 2026-04-30 21:41 | 41.82664 | -6.20974 | 35133 ft | 436 kts | 128° |
| 2026-04-30 21:42 | 41.79213 | -6.14285 | 35136 ft | 437 kts | 128° |
| 2026-04-30 21:42 | 41.75759 | -6.07595 | 35123 ft | 437 kts | 128° |
| 2026-04-30 21:43 | 41.72881 | -6.02044 | 35132 ft | 437 kts | 128° |
| 2026-04-30 21:43 | 41.69416 | -5.95365 | 35133 ft | 437 kts | 128° |
| 2026-04-30 21:44 | 41.65391 | -5.87613 | 35130 ft | 436 kts | 128° |
| 2026-04-30 21:44 | 41.62480 | -5.82039 | 35125 ft | 436 kts | 128° |
| 2026-04-30 21:45 | 41.59002 | -5.75396 | 35130 ft | 436 kts | 128° |
| 2026-04-30 21:45 | 41.55551 | -5.68799 | 35123 ft | 436 kts | 128° |
| 2026-04-30 21:46 | 41.51803 | -5.62484 | 35129 ft | 432 kts | 139° |
| 2026-04-30 21:46 | 41.47384 | -5.57067 | 35126 ft | 431 kts | 140° |
| 2026-04-30 21:47 | 41.42958 | -5.51664 | 35127 ft | 431 kts | 140° |
| 2026-04-30 21:47 | 41.38533 | -5.46257 | 35129 ft | 431 kts | 140° |
| 2026-04-30 21:48 | 41.34111 | -5.40859 | 35128 ft | 431 kts | 140° |
| 2026-04-30 21:48 | 41.29686 | -5.35472 | 35127 ft | 431 kts | 140° |
| 2026-04-30 21:49 | 41.25249 | -5.30098 | 35120 ft | 431 kts | 140° |
| 2026-04-30 21:49 | 41.20816 | -5.24733 | 35125 ft | 431 kts | 140° |
| 2026-04-30 21:50 | 41.16383 | -5.19361 | 35125 ft | 431 kts | 140° |
| 2026-04-30 21:50 | 41.11944 | -5.14002 | 35129 ft | 432 kts | 140° |
| 2026-04-30 21:51 | 41.07499 | -5.08645 | 35126 ft | 432 kts | 140° |
| 2026-04-30 21:51 | 41.03050 | -5.03306 | 35126 ft | 432 kts | 140° |
| 2026-04-30 21:52 | 40.98597 | -4.97965 | 35121 ft | 432 kts | 140° |
| 2026-04-30 21:52 | 40.94137 | -4.92627 | 35115 ft | 432 kts | 140° |
| 2026-04-30 21:53 | 40.89677 | -4.87296 | 35124 ft | 432 kts | 140° |
| 2026-04-30 21:53 | 40.85237 | -4.82009 | 35129 ft | 433 kts | 140° |
| 2026-04-30 21:54 | 40.80769 | -4.76691 | 35132 ft | 433 kts | 141° |
| 2026-04-30 21:54 | 40.76298 | -4.71368 | 35131 ft | 433 kts | 141° |
| 2026-04-30 21:55 | 40.71817 | -4.66056 | 35136 ft | 433 kts | 141° |
| 2026-04-30 21:55 | 40.67331 | -4.60746 | 35137 ft | 433 kts | 141° |
| 2026-04-30 21:56 | 40.62839 | -4.55443 | 35126 ft | 434 kts | 141° |
| 2026-04-30 21:56 | 40.58347 | -4.50135 | 35129 ft | 434 kts | 141° |
| 2026-04-30 21:57 | 40.53847 | -4.44835 | 35127 ft | 434 kts | 141° |
| 2026-04-30 21:57 | 40.49340 | -4.39547 | 35127 ft | 435 kts | 141° |
| 2026-04-30 21:58 | 40.44828 | -4.34260 | 35126 ft | 435 kts | 141° |
| 2026-04-30 21:58 | 40.40149 | -4.29287 | 35125 ft | 430 kts | 153° |
| 2026-04-30 21:59 | 40.34620 | -4.26618 | 35113 ft | 422 kts | 173° |
| 2026-04-30 22:00 | 40.25949 | -4.27372 | 35108 ft | 418 kts | 191° |
| 2026-04-30 22:00 | 40.17378 | -4.29253 | 35103 ft | 419 kts | 191° |
| 2026-04-30 22:01 | 40.11627 | -4.30518 | 35106 ft | 419 kts | 191° |
| 2026-04-30 22:01 | 40.05883 | -4.31785 | 35111 ft | 419 kts | 191° |
| 2026-04-30 22:02 | 40.00132 | -4.33045 | 35120 ft | 419 kts | 191° |
| 2026-04-30 22:02 | 39.94382 | -4.34300 | 35106 ft | 419 kts | 191° |
| 2026-04-30 22:03 | 39.88629 | -4.35541 | 35121 ft | 419 kts | 191° |
| 2026-04-30 22:03 | 39.82879 | -4.36778 | 35115 ft | 419 kts | 191° |
| 2026-04-30 22:04 | 39.77129 | -4.38012 | 35118 ft | 419 kts | 191° |
| 2026-04-30 22:05 | 39.68505 | -4.39864 | 35112 ft | 419 kts | 191° |
| 2026-04-30 22:05 | 39.62790 | -4.41087 | 35115 ft | 419 kts | 191° |
| 2026-04-30 22:06 | 39.57029 | -4.42317 | 35115 ft | 420 kts | 191° |
| 2026-04-30 22:06 | 39.48380 | -4.44154 | 35108 ft | 420 kts | 191° |
| 2026-04-30 22:07 | 39.42610 | -4.45378 | 35118 ft | 420 kts | 191° |
| 2026-04-30 22:07 | 39.36836 | -4.46599 | 35112 ft | 421 kts | 191° |
| 2026-04-30 22:08 | 39.31060 | -4.47812 | 35111 ft | 421 kts | 191° |
| 2026-04-30 22:08 | 39.25282 | -4.49039 | 35115 ft | 421 kts | 191° |
| 2026-04-30 22:09 | 39.19508 | -4.50257 | 35119 ft | 420 kts | 191° |
| 2026-04-30 22:09 | 39.13736 | -4.51471 | 35120 ft | 420 kts | 191° |
| 2026-04-30 22:10 | 39.07968 | -4.52682 | 35119 ft | 420 kts | 191° |
| 2026-04-30 22:10 | 39.02237 | -4.53887 | 35105 ft | 420 kts | 191° |
| 2026-04-30 22:11 | 38.93576 | -4.55691 | 35107 ft | 421 kts | 191° |
| 2026-04-30 22:12 | 38.87793 | -4.56873 | 35112 ft | 421 kts | 190° |
| 2026-04-30 22:12 | 38.81959 | -4.57737 | 34804 ft | 422 kts | 187° |
| 2026-04-30 22:12 | 38.79037 | -4.58075 | 34558 ft | 422 kts | 187° |
| 2026-04-30 22:13 | 38.76112 | -4.58402 | 34321 ft | 422 kts | 187° |
| 2026-04-30 22:13 | 38.73192 | -4.58739 | 34084 ft | 422 kts | 187° |
| 2026-04-30 22:13 | 38.70269 | -4.59096 | 33808 ft | 422 kts | 187° |
| 2026-04-30 22:13 | 38.67348 | -4.59474 | 33538 ft | 422 kts | 188° |
| 2026-04-30 22:14 | 38.64422 | -4.59868 | 33269 ft | 422 kts | 188° |
| 2026-04-30 22:14 | 38.61503 | -4.60261 | 33003 ft | 421 kts | 188° |
| 2026-04-30 22:14 | 38.58593 | -4.60649 | 32740 ft | 420 kts | 188° |
| 2026-04-30 22:14 | 38.55691 | -4.61033 | 32475 ft | 418 kts | 188° |
| 2026-04-30 22:15 | 38.52805 | -4.61407 | 32207 ft | 416 kts | 188° |
| 2026-04-30 22:15 | 38.49935 | -4.61778 | 31958 ft | 414 kts | 188° |
| 2026-04-30 22:15 | 38.47074 | -4.62151 | 31705 ft | 413 kts | 188° |
| 2026-04-30 22:15 | 38.44222 | -4.62523 | 31455 ft | 411 kts | 188° |
| 2026-04-30 22:16 | 38.41383 | -4.62893 | 31210 ft | 410 kts | 188° |
| 2026-04-30 22:16 | 38.38552 | -4.63258 | 30960 ft | 408 kts | 188° |
| 2026-04-30 22:17 | 38.30116 | -4.64351 | 30240 ft | 404 kts | 188° |
| 2026-04-30 22:17 | 38.27321 | -4.64711 | 29966 ft | 403 kts | 188° |
| 2026-04-30 22:17 | 38.21767 | -4.65431 | 29405 ft | 400 kts | 188° |
| 2026-04-30 22:18 | 38.19006 | -4.65794 | 29125 ft | 398 kts | 188° |
| 2026-04-30 22:18 | 38.13522 | -4.66507 | 28580 ft | 395 kts | 188° |
| 2026-04-30 22:19 | 38.08096 | -4.67204 | 27907 ft | 387 kts | 188° |
| 2026-04-30 22:19 | 38.05429 | -4.67542 | 27416 ft | 383 kts | 188° |
| 2026-04-30 22:19 | 38.00190 | -4.68209 | 26475 ft | 374 kts | 188° |
| 2026-04-30 22:20 | 37.97610 | -4.68539 | 26025 ft | 370 kts | 188° |
| 2026-04-30 22:20 | 37.92542 | -4.69189 | 25153 ft | 362 kts | 188° |
| 2026-04-30 22:20 | 37.90049 | -4.69509 | 24727 ft | 359 kts | 188° |
| 2026-04-30 22:21 | 37.87578 | -4.69826 | 24304 ft | 355 kts | 187° |
| 2026-04-30 22:21 | 37.85127 | -4.70141 | 23871 ft | 353 kts | 187° |
| 2026-04-30 22:21 | 37.82696 | -4.70456 | 23417 ft | 350 kts | 187° |
| 2026-04-30 22:21 | 37.80288 | -4.70769 | 22980 ft | 346 kts | 187° |
| 2026-04-30 22:22 | 37.77903 | -4.71074 | 22560 ft | 343 kts | 187° |
| 2026-04-30 22:22 | 37.75539 | -4.71372 | 22140 ft | 340 kts | 187° |
| 2026-04-30 22:22 | 37.73229 | -4.71663 | 21724 ft | 337 kts | 187° |
| 2026-04-30 22:22 | 37.70903 | -4.71958 | 21301 ft | 335 kts | 187° |
| 2026-04-30 22:23 | 37.68591 | -4.72254 | 20876 ft | 333 kts | 187° |
| 2026-04-30 22:23 | 37.66293 | -4.72547 | 20450 ft | 331 kts | 187° |
| 2026-04-30 22:23 | 37.64002 | -4.72841 | 20026 ft | 330 kts | 187° |
| 2026-04-30 22:23 | 37.61717 | -4.73132 | 19586 ft | 330 kts | 187° |
| 2026-04-30 22:24 | 37.59434 | -4.73421 | 19165 ft | 329 kts | 187° |
| 2026-04-30 22:24 | 37.57155 | -4.73708 | 18747 ft | 329 kts | 187° |
| 2026-04-30 22:24 | 37.54875 | -4.73996 | 18311 ft | 329 kts | 187° |
| 2026-04-30 22:24 | 37.52595 | -4.74287 | 17855 ft | 329 kts | 187° |
| 2026-04-30 22:25 | 37.50324 | -4.74575 | 17436 ft | 327 kts | 187° |
| 2026-04-30 22:25 | 37.48065 | -4.74862 | 17021 ft | 326 kts | 187° |
| 2026-04-30 22:25 | 37.45813 | -4.75150 | 16615 ft | 324 kts | 187° |
| 2026-04-30 22:25 | 37.43571 | -4.75437 | 16206 ft | 323 kts | 187° |
| 2026-04-30 22:26 | 37.39084 | -4.76008 | 15273 ft | 326 kts | 187° |
| 2026-04-30 22:26 | 37.36822 | -4.76292 | 14789 ft | 327 kts | 187° |
| 2026-04-30 22:26 | 37.34549 | -4.76577 | 14315 ft | 329 kts | 187° |
| 2026-04-30 22:27 | 37.32272 | -4.76863 | 13842 ft | 330 kts | 187° |
| 2026-04-30 22:27 | 37.29987 | -4.77148 | 13315 ft | 330 kts | 187° |
| 2026-04-30 22:27 | 37.25450 | -4.77721 | 12293 ft | 330 kts | 187° |
| 2026-04-30 22:28 | 37.20945 | -4.78290 | 11382 ft | 314 kts | 186° |
| 2026-04-30 22:28 | 37.18829 | -4.78551 | 11046 ft | 298 kts | 186° |
| 2026-04-30 22:29 | 37.12964 | -4.79285 | 10038 ft | 275 kts | 186° |
| 2026-04-30 22:29 | 37.11056 | -4.79524 | 9678 ft | 276 kts | 186° |
| 2026-04-30 22:30 | 37.03493 | -4.80059 | 8251 ft | 269 kts | 180° |
| 2026-04-30 22:31 | 36.97920 | -4.79994 | 7219 ft | 265 kts | 179° |
| 2026-04-30 22:32 | 36.92486 | -4.79626 | 6201 ft | 260 kts | 163° |
| 2026-04-30 22:32 | 36.89074 | -4.78145 | 5492 ft | 259 kts | 161° |
| 2026-04-30 22:33 | 36.84177 | -4.75366 | 4450 ft | 256 kts | 151° |
| 2026-04-30 22:33 | 36.81074 | -4.73278 | 3751 ft | 250 kts | 152° |
| 2026-04-30 22:34 | 36.77135 | -4.69937 | 3184 ft | 222 kts | 119° |
| 2026-04-30 22:35 | 36.75702 | -4.66521 | 2794 ft | 222 kts | 117° |
| 2026-04-30 22:36 | 36.73109 | -4.60325 | 1732 ft | 214 kts | 117° |
| 2026-04-30 22:36 | 36.72441 | -4.58733 | 1454 ft | 199 kts | 117° |
| 2026-04-30 22:37 | 36.70702 | -4.54587 | 763 ft | 168 kts | 117° |
| 2026-04-30 22:37 | 36.70162 | -4.53305 | 538 ft | 166 kts | 116° |
| 2026-04-30 22:37 | 36.69100 | -4.50775 | 106 ft | 163 kts | 116° |
| 2026-04-30 22:38 | 36.68222 | -4.48677 | 40 ft | 92 kts | 118° |
| 2026-04-30 22:38 | 36.67914 | -4.48104 | 37 ft | 11 kts | 159° |
| 2026-04-30 22:39 | 36.67841 | -4.48083 | 36 ft | 10 kts | 188° |
| 2026-04-30 22:39 | 36.67888 | -4.48329 | 38 ft | 20 kts | 296° |
| 2026-04-30 22:40 | 36.68093 | -4.48814 | 40 ft | 16 kts | 297° |
| 2026-04-30 22:41 | 36.68269 | -4.49234 | 40 ft | 11 kts | 297° |
| 2026-04-30 22:41 | 36.68179 | -4.49432 | 42 ft | 18 kts | 221° |
| 2026-04-30 22:42 | 36.67909 | -4.49432 | 42 ft | 6 kts | 190° |
| 2026-04-30 22:43 | 36.67871 | -4.49453 | 42 ft | 2 kts | 213° |
| 2026-04-30 22:43 | 36.67865 | -4.49458 | 40 ft | 0 kts | 213° |